Time;durP1;ratioP1;P1;durP2;ratioP2;P2;SDS_P1;SDS_P2;PMS_P1;PMS_P2;Temp;Humidity;BMP_temperature;BMP_pressure;BME280_temperature;BME280_humidity;BME280_pressure;Samples;Min_cycle;Max_cycle;Signal;HPM_P1;HPM_P2
2021/07/10 00:01:23;;;;;;;4.77;3.47;;;18.90;99.90;;;;;;5032995;28;20506;-81
2021/07/10 00:03:52;;;;;;;8.30;4.03;;;18.90;99.90;;;;;;5032254;28;20474;-82
2021/07/10 00:06:20;;;;;;;5.70;4.70;;;18.80;99.90;;;;;;5031662;28;20474;-82
2021/07/10 00:08:48;;;;;;;4.70;4.20;;;18.80;99.90;;;;;;5031306;28;20471;-81
2021/07/10 00:11:17;;;;;;;11.63;4.57;;;18.80;99.90;;;;;;5031562;28;20466;-82
2021/07/10 00:13:46;;;;;;;3.90;3.60;;;18.80;99.90;;;;;;5028892;28;20518;-81
2021/07/10 00:16:14;;;;;;;4.50;4.10;;;18.70;99.90;;;;;;5032582;28;20457;-81
2021/07/10 00:18:43;;;;;;;7.30;4.30;;;18.70;99.90;;;;;;5032784;28;20430;-81
2021/07/10 00:21:11;;;;;;;4.43;4.13;;;18.70;99.90;;;;;;5031958;28;20453;-81
2021/07/10 00:23:39;;;;;;;4.70;4.37;;;18.60;99.90;;;;;;5032259;28;20470;-81
2021/07/10 00:26:07;;;;;;;4.30;3.90;;;18.70;99.90;;;;;;5031080;28;20454;-82
2021/07/10 00:28:36;;;;;;;5.27;4.77;;;18.70;99.90;;;;;;5031798;28;20537;-81
2021/07/10 00:31:04;;;;;;;8.60;4.50;;;18.70;99.90;;;;;;5019675;28;20544;-82
2021/07/10 00:33:33;;;;;;;5.03;4.63;;;18.60;99.90;;;;;;5011903;28;20489;-82
2021/07/10 00:36:01;;;;;;;4.23;3.90;;;18.60;99.90;;;;;;5028934;28;20459;-81
2021/07/10 00:38:29;;;;;;;4.30;3.90;;;18.50;99.90;;;;;;5033163;28;20489;-80
2021/07/10 00:40:57;;;;;;;4.93;3.90;;;18.60;99.90;;;;;;5031062;28;20477;-81
2021/07/10 00:43:25;;;;;;;4.33;3.90;;;18.50;99.90;;;;;;5032779;28;20479;-82
2021/07/10 00:45:55;;;;;;;5.03;4.63;;;18.50;99.90;;;;;;5032829;28;20453;-81
2021/07/10 00:48:23;;;;;;;5.23;4.73;;;18.50;99.90;;;;;;5031283;28;20449;-81
2021/07/10 00:50:51;;;;;;;4.30;3.90;;;18.40;99.90;;;;;;5031440;28;20515;-80
2021/07/10 00:53:19;;;;;;;4.60;4.20;;;18.50;99.90;;;;;;5029682;28;20479;-81
2021/07/10 00:55:48;;;;;;;5.20;4.07;;;18.40;99.90;;;;;;5010527;28;21001;-81
2021/07/10 00:58:16;;;;;;;4.73;4.03;;;18.40;99.90;;;;;;5018922;28;21125;-81
2021/07/10 01:00:44;;;;;;;3.97;3.67;;;18.40;99.90;;;;;;5028296;28;20866;-81
2021/07/10 01:03:14;;;;;;;4.40;4.10;;;18.40;99.90;;;;;;5027106;28;20458;-82
2021/07/10 01:05:43;;;;;;;3.93;3.63;;;18.40;94.50;;;;;;5028897;28;20450;-81
2021/07/10 01:08:11;;;;;;;4.87;4.47;;;18.30;96.40;;;;;;5031769;28;20503;-82
2021/07/10 01:10:39;;;;;;;3.97;3.73;;;18.30;90.70;;;;;;5020266;28;20467;-81
2021/07/10 01:13:09;;;;;;;3.83;3.53;;;18.30;87.50;;;;;;5030579;28;20467;-81
2021/07/10 01:15:37;;;;;;;4.23;3.90;;;18.30;99.90;;;;;;5029226;28;20907;-83
2021/07/10 01:18:05;;;;;;;3.93;3.53;;;18.30;99.90;;;;;;5045678;28;20784;-81
2021/07/10 01:20:45;;;;;;;3.57;3.30;;;18.20;99.90;;;;;;5028915;28;20454;-81
2021/07/10 01:23:13;;;;;;;4.10;3.70;;;18.20;99.90;;;;;;5028265;28;20446;-82
2021/07/10 01:25:42;;;;;;;4.17;3.87;;;18.20;99.90;;;;;;5030150;28;20555;-81
2021/07/10 01:28:10;;;;;;;4.70;4.40;;;18.20;99.90;;;;;;5032234;28;20453;-81
2021/07/10 01:30:39;;;;;;;4.30;3.83;;;18.20;99.90;;;;;;5025641;28;20470;-81
2021/07/10 01:33:07;;;;;;;3.73;3.43;;;18.20;99.90;;;;;;5029976;28;20544;-80
2021/07/10 01:35:36;;;;;;;4.37;3.97;;;18.20;99.90;;;;;;5024101;28;20455;-80
2021/07/10 01:38:07;;;;;;;7.80;3.77;;;18.10;99.90;;;;;;5030551;28;20479;-81
2021/07/10 01:40:36;;;;;;;3.90;3.60;;;18.10;99.90;;;;;;5029945;28;20512;-81
2021/07/10 01:43:05;;;;;;;4.43;3.80;;;18.10;99.90;;;;;;5032020;28;20462;-81
2021/07/10 01:45:35;;;;;;;4.00;3.60;;;18.10;99.90;;;;;;5031198;28;20800;-80
2021/07/10 01:48:05;;;;;;;5.33;4.07;;;18.10;99.90;;;;;;5033301;28;20493;-80
2021/07/10 01:50:33;;;;;;;5.73;4.53;;;18.00;99.90;;;;;;5029496;28;20474;-80
2021/07/10 01:53:01;;;;;;;4.10;3.70;;;18.00;99.90;;;;;;5032671;28;20458;-80
2021/07/10 01:55:31;;;;;;;4.40;4.10;;;18.00;99.90;;;;;;5032366;28;20516;-80
2021/07/10 01:57:59;;;;;;;4.50;4.20;;;18.00;99.90;;;;;;5032839;28;20445;-80
2021/07/10 02:00:31;;;;;;;4.03;3.60;;;18.00;99.90;;;;;;5032945;28;20499;-80
2021/07/10 02:03:01;;;;;;;5.13;4.73;;;17.90;99.90;;;;;;5032280;28;20584;-79
2021/07/10 02:05:30;;;;;;;4.10;3.80;;;18.00;99.90;;;;;;5030271;28;20464;-80
2021/07/10 02:07:59;;;;;;;5.10;4.60;;;18.00;99.90;;;;;;5023798;28;21052;-80
2021/07/10 02:10:29;;;;;;;5.30;4.70;;;17.90;99.90;;;;;;5030811;28;20465;-80
2021/07/10 02:13:02;;;;;;;5.70;4.53;;;17.90;99.90;;;;;;5030770;28;20467;-80
2021/07/10 02:15:30;;;;;;;4.90;4.07;;;17.90;99.90;;;;;;5028386;28;20595;-80
2021/07/10 02:17:58;;;;;;;4.13;3.83;;;17.90;99.90;;;;;;5030717;28;20446;-80
2021/07/10 02:20:27;;;;;;;4.47;4.07;;;17.90;99.90;;;;;;5031594;28;20997;-80
2021/07/10 02:22:56;;;;;;;4.57;4.17;;;17.80;99.90;;;;;;5031306;28;20449;-80
2021/07/10 02:25:26;;;;;;;4.37;4.07;;;17.80;99.90;;;;;;5029195;28;20457;-81
2021/07/10 02:27:54;;;;;;;6.10;3.90;;;17.80;99.90;;;;;;5024102;28;20450;-81
2021/07/10 02:30:27;;;;;;;4.83;4.37;;;17.80;99.90;;;;;;5023289;28;20467;-81
2021/07/10 02:32:56;;;;;;;5.43;3.83;;;17.80;99.90;;;;;;5030984;28;20488;-81
2021/07/10 02:35:28;;;;;;;4.40;4.10;;;17.80;99.90;;;;;;5028574;28;21041;-81
2021/07/10 02:37:57;;;;;;;4.70;4.30;;;17.80;99.90;;;;;;5030894;28;20461;-81
2021/07/10 02:40:25;;;;;;;5.20;4.57;;;17.80;99.90;;;;;;5029864;28;20454;-80
2021/07/10 02:42:54;;;;;;;4.60;4.20;;;17.70;99.90;;;;;;5029930;28;20485;-81
2021/07/10 02:45:24;;;;;;;6.33;4.83;;;17.70;99.90;;;;;;5031288;28;20474;-81
2021/07/10 02:47:52;;;;;;;4.23;3.93;;;17.70;99.90;;;;;;5031556;28;20448;-80
2021/07/10 02:50:22;;;;;;;4.97;4.30;;;17.70;99.90;;;;;;5031411;28;20500;-80
2021/07/10 02:52:53;;;;;;;9.93;6.20;;;17.70;99.90;;;;;;5028853;28;20498;-80
2021/07/10 02:55:22;;;;;;;5.87;4.53;;;17.70;99.90;;;;;;5031087;28;20477;-79
2021/07/10 02:57:51;;;;;;;7.70;5.07;;;17.60;99.90;;;;;;5029562;28;20453;-80
2021/07/10 03:00:21;;;;;;;4.13;3.73;;;17.60;99.90;;;;;;5025848;28;20515;-80
2021/07/10 03:02:51;;;;;;;5.20;3.97;;;17.60;99.90;;;;;;5027887;28;20461;-81
2021/07/10 03:05:19;;;;;;;4.23;3.93;;;17.60;99.90;;;;;;5028711;28;20508;-80
2021/07/10 03:07:47;;;;;;;4.07;3.77;;;17.60;99.90;;;;;;5020694;28;20456;-80
2021/07/10 03:10:18;;;;;;;4.50;4.10;;;17.50;99.90;;;;;;5031829;28;20559;-80
2021/07/10 03:12:46;;;;;;;5.30;4.80;;;17.50;99.90;;;;;;5015117;28;20466;-80
2021/07/10 03:15:17;;;;;;;5.20;4.70;;;17.50;99.90;;;;;;5021960;28;20472;-78
2021/07/10 03:17:46;;;;;;;6.13;4.70;;;17.50;99.90;;;;;;5031089;28;20506;-81
2021/07/10 03:20:17;;;;;;;4.77;4.27;;;17.50;99.90;;;;;;5031580;28;20529;-81
2021/07/10 03:22:45;;;;;;;4.90;4.40;;;17.50;99.90;;;;;;5033642;28;20453;-80
2021/07/10 03:25:14;;;;;;;5.20;4.43;;;17.50;99.90;;;;;;5029483;28;20484;-81
2021/07/10 03:27:43;;;;;;;5.00;4.50;;;17.50;99.90;;;;;;5015244;28;20446;-81
2021/07/10 03:30:15;;;;;;;4.17;3.87;;;17.50;99.90;;;;;;5030013;28;20522;-79
2021/07/10 03:32:43;;;;;;;4.00;3.70;;;17.40;99.90;;;;;;5028041;28;20452;-81
2021/07/10 03:35:13;;;;;;;4.37;3.93;;;17.40;99.90;;;;;;5033759;28;20560;-80
2021/07/10 03:37:47;;;;;;;5.27;4.87;;;17.40;99.90;;;;;;5033039;28;20453;-80
2021/07/10 03:40:18;;;;;;;4.77;4.30;;;17.40;99.90;;;;;;5034265;28;20468;-80
2021/07/10 03:42:47;;;;;;;5.03;4.40;;;17.40;99.90;;;;;;5033580;28;20476;-80
2021/07/10 03:45:16;;;;;;;4.80;4.13;;;17.40;99.90;;;;;;5033081;28;20465;-80
2021/07/10 03:47:48;;;;;;;4.63;4.00;;;17.40;99.90;;;;;;5033970;28;20437;-80
2021/07/10 03:50:18;;;;;;;4.97;4.57;;;17.40;99.90;;;;;;5032929;28;20479;-81
2021/07/10 03:52:48;;;;;;;3.93;3.63;;;17.40;99.90;;;;;;5030827;28;20460;-81
2021/07/10 03:55:16;;;;;;;5.07;4.30;;;17.40;99.90;;;;;;5032810;28;20491;-81
2021/07/10 03:57:45;;;;;;;4.50;3.97;;;17.40;99.90;;;;;;5033222;28;20454;-81
2021/07/10 04:00:16;;;;;;;4.90;4.60;;;17.40;99.90;;;;;;5034603;28;20457;-81
2021/07/10 04:02:44;;;;;;;4.93;4.43;;;17.40;99.90;;;;;;5030608;28;20454;-81
2021/07/10 04:05:12;;;;;;;6.03;4.17;;;17.30;99.90;;;;;;5032543;28;20476;-81
2021/07/10 04:07:41;;;;;;;4.23;3.90;;;17.40;99.90;;;;;;5033976;28;20442;-80
2021/07/10 04:10:12;;;;;;;5.47;4.00;;;17.30;99.90;;;;;;5032853;28;20456;-81
2021/07/10 04:12:41;;;;;;;3.87;3.60;;;17.30;99.90;;;;;;5021065;28;20464;-81
2021/07/10 04:15:11;;;;;;;4.20;3.80;;;17.30;99.90;;;;;;5014452;28;20471;-79
2021/07/10 04:17:39;;;;;;;4.40;4.10;;;17.30;99.90;;;;;;5030832;28;20512;-81
2021/07/10 04:20:09;;;;;;;4.90;4.43;;;17.30;99.90;;;;;;5028771;28;20488;-81
2021/07/10 04:22:38;;;;;;;4.27;3.97;;;17.30;99.90;;;;;;5031231;28;20458;-80
2021/07/10 04:25:09;;;;;;;5.37;5.00;;;17.30;99.90;;;;;;5028607;28;21044;-81
2021/07/10 04:27:39;;;;;;;4.30;3.90;;;17.30;99.90;;;;;;5031636;28;20445;-81
2021/07/10 04:30:09;;;;;;;4.93;4.43;;;17.30;99.90;;;;;;5023367;28;20444;-81
2021/07/10 04:32:37;;;;;;;3.93;3.63;;;17.40;99.90;;;;;;5031684;28;20483;-80
2021/07/10 04:35:07;;;;;;;4.83;4.43;;;17.30;99.90;;;;;;5022819;28;20500;-80
2021/07/10 04:37:35;;;;;;;6.33;5.73;;;17.40;99.90;;;;;;5032026;28;21277;-80
2021/07/10 04:40:05;;;;;;;5.50;5.00;;;17.40;1.00;;;;;;5031548;28;20465;-80
2021/07/10 04:42:34;;;;;;;5.57;5.17;;;17.40;1.00;;;;;;5033204;28;20535;-80
2021/07/10 04:45:04;;;;;;;6.20;5.17;;;17.40;1.00;;;;;;5031536;28;20533;-80
2021/07/10 04:47:32;;;;;;;7.10;5.47;;;17.50;1.00;;;;;;5028828;28;20447;-79
2021/07/10 04:50:00;;;;;;;6.10;5.60;;;17.50;1.00;;;;;;5032357;28;20434;-81
2021/07/10 04:52:29;;;;;;;11.23;8.47;;;17.50;1.00;;;;;;5031059;28;20542;-83
2021/07/10 04:54:57;;;;;;;14.47;10.30;;;17.50;1.00;;;;;;5030246;28;20477;-82
2021/07/10 04:57:25;;;;;;;9.57;7.40;;;17.60;1.00;;;;;;5026262;28;20453;-82
2021/07/10 04:59:53;;;;;;;10.10;8.50;;;17.60;1.00;;;;;;5029346;28;20453;-81
2021/07/10 05:02:28;;;;;;;11.73;8.77;;;17.60;52.10;;;;;;5026175;28;20457;-82
2021/07/10 05:04:56;;;;;;;11.37;8.53;;;17.70;99.90;;;;;;5022894;28;20531;-82
2021/07/10 05:07:25;;;;;;;7.97;6.90;;;17.70;99.90;;;;;;5029590;28;20454;-80
2021/07/10 05:09:53;;;;;;;8.00;7.13;;;17.70;99.90;;;;;;5029078;28;20820;-80
2021/07/10 05:12:22;;;;;;;10.57;8.70;;;17.80;99.90;;;;;;4994053;28;1109795;-80
2021/07/10 05:14:51;;;;;;;11.50;7.60;;;17.80;1.00;;;;;;5034051;28;20470;-80
2021/07/10 05:17:20;;;;;;;8.47;7.67;;;17.90;1.00;;;;;;5028727;28;20462;-79
2021/07/10 05:19:50;;;;;;;7.67;6.70;;;17.90;1.00;;;;;;5031130;28;20504;-77
2021/07/10 05:22:18;;;;;;;8.37;6.90;;;17.90;1.00;;;;;;5031024;28;20465;-77
2021/07/10 05:24:47;;;;;;;7.17;6.47;;;18.00;1.00;;;;;;5029044;28;20520;-79
2021/07/10 05:27:15;;;;;;;7.33;6.47;;;18.00;1.00;;;;;;5043082;28;20454;-79
2021/07/10 05:29:43;;;;;;;6.10;5.50;;;18.00;1.00;;;;;;5031357;28;20453;-78
2021/07/10 05:32:13;;;;;;;7.20;6.60;;;18.10;1.00;;;;;;5034063;28;21008;-79
2021/07/10 05:34:41;;;;;;;7.20;6.03;;;18.10;1.00;;;;;;5028307;28;20482;-79
2021/07/10 05:37:11;;;;;;;6.87;5.20;;;18.10;1.00;;;;;;5031350;28;20445;-79
2021/07/10 05:39:42;;;;;;;6.40;5.90;;;18.20;1.00;;;;;;5037035;28;20482;-80
2021/07/10 05:42:11;;;;;;;5.40;4.90;;;18.20;1.00;;;;;;5032907;28;20434;-79
2021/07/10 05:44:39;;;;;;;6.03;5.60;;;18.30;34.10;;;;;;5036470;28;20470;-79
2021/07/10 05:47:07;;;;;;;6.30;5.73;;;18.30;1.00;;;;;;5040053;28;20457;-80
2021/07/10 05:49:35;;;;;;;7.53;6.83;;;18.30;1.00;;;;;;5035891;28;20529;-80
2021/07/10 05:52:04;;;;;;;6.40;5.50;;;18.30;1.00;;;;;;5048501;28;20482;-81
2021/07/10 05:54:34;;;;;;;6.87;6.27;;;18.40;1.00;;;;;;5031713;28;20549;-81
2021/07/10 05:57:02;;;;;;;6.30;5.80;;;18.40;1.00;;;;;;5036374;28;20454;-79
2021/07/10 05:59:30;;;;;;;6.53;6.00;;;18.50;1.00;;;;;;5028085;28;20454;-81
2021/07/10 06:01:58;;;;;;;6.43;5.77;;;18.50;1.00;;;;;;5029079;28;20514;-81
2021/07/10 06:04:27;;;;;;;29.37;18.90;;;18.50;1.00;;;;;;5028388;28;20982;-80
2021/07/10 06:06:55;;;;;;;20.43;13.43;;;18.60;1.00;;;;;;5031032;28;20463;-81
2021/07/10 06:09:23;;;;;;;9.67;7.47;;;18.60;1.00;;;;;;5028932;28;20541;-78
2021/07/10 06:11:52;;;;;;;6.93;6.10;;;18.60;1.00;;;;;;5028989;28;20483;-79
2021/07/10 06:14:21;;;;;;;6.57;5.97;;;18.70;99.90;;;;;;5029842;28;20532;-80
2021/07/10 06:16:49;;;;;;;5.00;4.60;;;18.70;99.90;;;;;;5028105;28;20459;-80
2021/07/10 06:19:18;;;;;;;5.13;4.63;;;18.80;99.90;;;;;;5023621;28;20474;-80
2021/07/10 06:21:46;;;;;;;5.00;4.57;;;18.80;1.00;;;;;;5029748;28;20502;-80
2021/07/10 06:24:14;;;;;;;5.20;4.77;;;18.80;1.00;;;;;;5026802;28;20913;-75
2021/07/10 06:26:42;;;;;;;8.10;5.07;;;18.90;23.10;;;;;;5017083;28;20902;-75
2021/07/10 06:29:12;;;;;;;5.10;4.70;;;18.90;1.00;;;;;;5029092;28;20479;-75
2021/07/10 06:31:40;;;;;;;5.60;5.10;;;18.90;74.50;;;;;;5024938;28;20439;-81
2021/07/10 06:34:09;;;;;;;5.30;4.77;;;18.90;1.00;;;;;;5030319;28;20463;-79
2021/07/10 06:36:39;;;;;;;5.10;4.67;;;18.80;99.90;;;;;;5023492;28;20456;-80
2021/07/10 06:39:07;;;;;;;4.67;4.27;;;18.80;1.00;;;;;;5029863;28;20521;-80
2021/07/10 06:41:37;;;;;;;4.57;4.27;;;18.90;1.00;;;;;;5024525;28;20450;-81
2021/07/10 06:44:06;;;;;;;4.83;4.43;;;18.90;1.00;;;;;;5018822;28;20533;-80
2021/07/10 06:46:35;;;;;;;4.20;3.90;;;19.00;33.20;;;;;;5026071;28;20452;-80
2021/07/10 06:49:04;;;;;;;5.97;5.47;;;19.00;1.00;;;;;;5028999;28;20543;-80
2021/07/10 06:51:34;;;;;;;7.10;3.40;;;19.00;1.00;;;;;;5026479;28;20460;-79
2021/07/10 06:54:02;;;;;;;4.00;3.70;;;19.00;99.90;;;;;;5027867;28;20483;-80
2021/07/10 06:56:30;;;;;;;3.50;3.30;;;19.10;99.90;;;;;;5026266;28;20459;-81
2021/07/10 06:58:58;;;;;;;8.63;4.57;;;19.10;1.00;;;;;;5027127;28;20475;-79
2021/07/10 07:01:27;;;;;;;5.13;4.07;;;19.20;1.00;;;;;;5027709;28;20494;-80
2021/07/10 07:03:57;;;;;;;4.70;4.40;;;19.40;99.90;;;;;;5024558;28;20482;-83
2021/07/10 07:06:25;;;;;;;3.37;3.17;;;19.70;1.00;;;;;;5025923;28;20448;-73
2021/07/10 07:08:56;;;;;;;3.83;3.43;;;19.90;99.90;;;;;;5026580;28;20463;-73
2021/07/10 07:11:24;;;;;;;7.23;3.47;;;20.20;99.90;;;;;;5028003;28;20478;-72
2021/07/10 07:13:52;;;;;;;3.90;3.60;;;20.30;99.90;;;;;;5026764;28;20483;-70
2021/07/10 07:16:20;;;;;;;4.30;3.90;;;20.50;41.00;;;;;;5020954;28;20453;-78
2021/07/10 07:18:48;;;;;;;4.00;3.73;;;20.60;83.80;;;;;;5025775;28;20847;-77
2021/07/10 07:21:18;;;;;;;4.90;4.03;;;20.60;1.00;;;;;;5028468;28;20502;-81
2021/07/10 07:23:46;;;;;;;4.27;3.40;;;20.70;1.00;;;;;;5022348;28;20464;-79
2021/07/10 07:26:15;;;;;;;3.47;3.13;;;20.70;1.00;;;;;;5026347;28;20452;-80
2021/07/10 07:28:43;;;;;;;3.50;3.30;;;20.70;1.00;;;;;;5024838;28;20515;-80
2021/07/10 07:31:11;;;;;;;3.20;3.00;;;20.70;1.00;;;;;;5045676;28;20455;-83
2021/07/10 07:33:39;;;;;;;3.43;3.13;;;20.70;1.00;;;;;;5024126;28;20884;-79
2021/07/10 07:36:08;;;;;;;3.40;3.13;;;20.70;1.00;;;;;;5023774;28;20995;-75
2021/07/10 07:38:39;;;;;;;3.50;3.20;;;20.70;1.00;;;;;;5024204;28;20510;-69
2021/07/10 07:41:07;;;;;;;2.93;2.73;;;20.70;1.00;;;;;;5040352;28;20452;-70
2021/07/10 07:43:36;;;;;;;3.93;3.53;;;20.70;1.00;;;;;;5025211;28;20465;-71
2021/07/10 07:46:04;;;;;;;4.37;3.63;;;20.80;1.00;;;;;;5024655;28;20448;-70
2021/07/10 07:48:32;;;;;;;3.80;2.70;;;20.80;1.00;;;;;;5024119;28;20510;-71
2021/07/10 07:51:02;;;;;;;2.90;2.70;;;20.70;1.00;;;;;;5026278;28;20567;-71
2021/07/10 07:53:30;;;;;;;2.80;2.57;;;20.70;1.00;;;;;;5025011;28;20600;-70
2021/07/10 07:55:59;;;;;;;3.33;3.13;;;20.80;1.00;;;;;;5025860;28;20444;-77
2021/07/10 07:58:27;;;;;;;4.73;3.50;;;20.80;1.00;;;;;;5024219;28;20804;-83
2021/07/10 08:00:56;;;;;;;2.80;2.70;;;20.90;1.00;;;;;;5017955;28;20471;-77
2021/07/10 08:03:24;;;;;;;3.23;3.03;;;20.90;1.00;;;;;;5023979;28;20469;-79
2021/07/10 08:05:52;;;;;;;4.77;4.47;;;20.90;1.00;;;;;;5022112;28;20444;-78
2021/07/10 08:08:20;;;;;;;3.50;3.20;;;21.00;1.00;;;;;;5011987;28;20467;-77
2021/07/10 08:10:48;;;;;;;3.33;3.07;;;21.10;1.00;;;;;;5030255;28;20510;-78
2021/07/10 08:13:18;;;;;;;4.10;3.10;;;21.10;1.00;;;;;;5031402;28;20484;-78
2021/07/10 08:15:46;;;;;;;2.60;2.40;;;21.10;1.00;;;;;;5028698;28;20452;-77
2021/07/10 08:18:14;;;;;;;4.87;2.47;;;21.10;1.00;;;;;;5027158;28;20525;-78
2021/07/10 08:20:43;;;;;;;3.27;2.97;;;21.20;1.00;;;;;;5030810;28;20460;-78
2021/07/10 08:23:13;;;;;;;4.30;4.00;;;21.20;1.00;;;;;;5028284;28;20849;-77
2021/07/10 08:25:43;;;;;;;2.67;2.47;;;21.30;1.00;;;;;;5030765;28;20473;-76
2021/07/10 08:28:11;;;;;;;2.90;2.70;;;21.30;1.00;;;;;;5022159;28;20462;-79
2021/07/10 08:30:40;;;;;;;2.80;2.53;;;21.30;1.00;;;;;;5025799;28;20453;-80
2021/07/10 08:33:08;;;;;;;2.93;2.73;;;21.30;1.00;;;;;;5026364;28;20476;-79
2021/07/10 08:35:36;;;;;;;3.50;2.67;;;21.30;1.00;;;;;;5027511;28;20468;-80
2021/07/10 08:38:05;;;;;;;2.63;2.43;;;21.30;1.00;;;;;;5027487;28;20936;-78
2021/07/10 08:40:33;;;;;;;3.00;2.80;;;21.40;1.00;;;;;;5025533;28;20448;-78
2021/07/10 08:43:01;;;;;;;2.97;2.70;;;21.40;1.00;;;;;;5029337;28;20785;-78
2021/07/10 08:45:33;;;;;;;2.67;2.47;;;21.50;1.00;;;;;;5030581;28;20461;-79
2021/07/10 08:48:05;;;;;;;2.80;2.60;;;21.50;1.00;;;;;;5029577;28;20449;-79
2021/07/10 08:50:34;;;;;;;3.47;2.50;;;21.50;1.00;;;;;;5030841;28;20462;-80
2021/07/10 08:53:04;;;;;;;3.13;2.50;;;21.60;1.00;;;;;;5028401;28;20512;-77
2021/07/10 08:55:36;;;;;;;4.60;3.53;;;21.80;1.00;;;;;;5024278;28;20456;-79
2021/07/10 08:58:05;;;;;;;3.83;2.50;;;21.80;1.00;;;;;;5027444;28;20448;-79
2021/07/10 09:00:35;;;;;;;2.33;2.23;;;21.80;1.00;;;;;;5028951;28;20458;-77
2021/07/10 09:03:05;;;;;;;1.80;1.70;;;21.80;1.00;;;;;;5027551;28;20450;-79
2021/07/10 09:05:34;;;;;;;2.80;2.60;;;21.90;1.00;;;;;;5027021;28;20448;-80
2021/07/10 09:08:19;;;;;;;2.67;2.50;;;21.90;99.90;;;;;;5024478;28;21000;-78
2021/07/10 09:10:52;;;;;;;2.47;2.27;;;21.80;99.90;;;;;;5028764;28;20458;-79
2021/07/10 09:13:22;;;;;;;2.50;2.30;;;21.90;99.90;;;;;;5024890;28;20497;-79
2021/07/10 09:15:50;;;;;;;4.07;2.20;;;22.00;99.90;;;;;;5026891;28;20514;-80
2021/07/10 09:18:19;;;;;;;2.47;2.27;;;21.90;99.90;;;;;;5026814;28;20568;-78
2021/07/10 09:20:48;;;;;;;2.33;2.23;;;21.90;99.90;;;;;;5026623;28;20519;-79
2021/07/10 09:23:38;;;;;;;2.60;2.37;;;21.90;99.90;;;;;;5026248;28;20466;-79
2021/07/10 09:26:21;;;;;;;2.67;2.47;;;21.90;99.90;;;;;;5026482;28;20519;-79
2021/07/10 09:29:08;;;;;;;2.50;2.30;;;21.90;99.90;;;;;;5027190;28;20526;-78
2021/07/10 09:31:38;;;;;;;2.97;2.77;;;22.00;99.90;;;;;;5019316;28;20482;-77
2021/07/10 09:34:11;;;;;;;2.80;2.30;;;22.10;99.90;;;;;;5026314;28;20464;-80
2021/07/10 09:36:53;;;;;;;2.60;2.50;;;22.20;99.90;;;;;;5025516;28;20196;-78
2021/07/10 09:39:22;;;;;;;2.53;2.07;;;22.20;99.90;;;;;;5025600;28;20467;-80
2021/07/10 09:41:50;;;;;;;2.57;2.37;;;22.30;99.90;;;;;;5028252;28;20463;-80
2021/07/10 09:44:19;;;;;;;1.90;1.80;;;22.30;99.90;;;;;;5029406;28;20477;-79
2021/07/10 09:46:47;;;;;;;2.42;2.30;;;22.30;99.90;;;;;;5026635;28;20445;-78
2021/07/10 09:49:35;;;;;;;2.57;2.43;;;22.40;99.90;;;;;;5029060;28;20271;-79
2021/07/10 09:52:09;;;;;;;2.90;2.60;;;22.40;99.90;;;;;;5020487;28;20447;-79
2021/07/10 09:54:40;;;;;;;4.13;2.30;;;22.50;99.90;;;;;;5028277;28;20565;-78
2021/07/10 09:57:19;;;;;;;2.60;2.47;;;22.30;99.90;;;;;;5028323;28;20432;-79
2021/07/10 09:59:50;;;;;;;2.00;1.90;;;22.50;99.90;;;;;;5017730;28;20210;-79
2021/07/10 10:02:25;;;;;;;3.03;2.37;;;22.40;99.90;;;;;;5030024;28;20462;-77
2021/07/10 10:05:02;;;;;;;2.00;1.90;;;22.40;99.90;;;;;;5028831;28;20466;-78
2021/07/10 10:07:42;;;;;;;2.60;2.40;;;22.40;99.90;;;;;;5026990;28;20453;-80
2021/07/10 10:10:16;;;;;;;2.70;2.50;;;22.60;99.90;;;;;;5024592;28;20189;-79
2021/07/10 10:13:11;;;;;;;2.60;2.23;;;22.60;99.90;;;;;;5029504;28;20474;-79
2021/07/10 10:15:42;;;;;;;2.83;2.50;;;22.60;99.90;;;;;;5027571;28;20526;-79
2021/07/10 10:18:12;;;;;;;2.53;1.83;;;22.60;99.90;;;;;;5028085;28;20494;-79
2021/07/10 10:20:43;;;;;;;2.40;2.20;;;22.60;99.90;;;;;;5026515;28;20533;-79
2021/07/10 10:23:12;;;;;;;3.57;2.00;;;22.60;99.90;;;;;;5017568;28;21041;-79
2021/07/10 10:25:42;;;;;;;3.20;2.70;;;22.60;99.90;;;;;;5028048;28;20531;-78
2021/07/10 10:28:18;;;;;;;1.90;1.70;;;22.70;99.90;;;;;;5023014;28;20461;-79
2021/07/10 10:30:47;;;;;;;2.03;1.80;;;22.70;99.90;;;;;;5027084;28;20825;-78
2021/07/10 10:33:16;;;;;;;1.97;1.87;;;22.70;99.90;;;;;;5026012;28;21057;-78
2021/07/10 10:35:47;;;;;;;2.10;1.90;;;22.70;99.90;;;;;;5026419;28;20538;-80
2021/07/10 10:38:16;;;;;;;2.10;2.00;;;22.70;99.90;;;;;;5028290;28;20468;-79
2021/07/10 10:40:45;;;;;;;2.07;1.50;;;22.70;99.90;;;;;;5025754;28;20442;-78
2021/07/10 10:43:16;;;;;;;2.20;1.67;;;22.70;99.90;;;;;;5026907;28;20455;-78
2021/07/10 10:45:45;;;;;;;3.33;1.80;;;22.70;99.90;;;;;;5028151;28;20460;-75
2021/07/10 10:48:16;;;;;;;1.83;1.73;;;22.80;99.90;;;;;;5028615;28;20942;-78
2021/07/10 10:50:46;;;;;;;2.00;1.90;;;22.80;99.90;;;;;;5023482;28;20452;-79
2021/07/10 10:53:22;;;;;;;1.60;1.50;;;22.80;99.90;;;;;;5027953;28;20482;-80
2021/07/10 10:55:51;;;;;;;2.77;1.70;;;22.80;99.90;;;;;;5026638;28;20489;-79
2021/07/10 10:58:22;;;;;;;1.63;1.53;;;22.90;99.90;;;;;;5030236;28;20452;-82
2021/07/10 11:00:58;;;;;;;1.80;1.70;;;22.90;99.90;;;;;;5023286;28;20744;-78
2021/07/10 11:03:36;;;;;;;2.20;2.00;;;23.00;99.90;;;;;;5027877;28;20537;-78
2021/07/10 11:06:06;;;;;;;5.50;1.70;;;23.00;99.90;;;;;;5027036;28;20448;-78
2021/07/10 11:08:49;;;;;;;2.00;1.43;;;23.00;99.90;;;;;;5027452;28;20435;-78
2021/07/10 11:11:37;;;;;;;1.50;1.40;;;22.90;99.90;;;;;;5057973;28;20453;-80
2021/07/10 11:14:12;;;;;;;4.50;3.10;;;23.00;99.90;;;;;;5027195;28;20476;-79
2021/07/10 11:17:12;;;;;;;3.63;2.63;;;23.10;99.90;;;;;;5026802;28;20454;-80
2021/07/10 11:19:49;;;;;;;1.80;1.70;;;23.10;99.90;;;;;;5026220;28;20510;-78
2021/07/10 11:22:56;;;;;;;3.30;2.93;;;23.20;99.90;;;;;;5025014;28;20469;-79
2021/07/10 11:26:01;;;;;;;1.97;1.73;;;23.30;99.90;;;;;;5016146;28;20476;-78
2021/07/10 11:28:53;;;;;;;1.83;1.73;;;23.30;99.90;;;;;;5029399;28;20448;-79
2021/07/10 11:31:27;;;;;;;1.80;1.70;;;23.30;99.90;;;;;;5016543;28;20526;-78
2021/07/10 11:34:08;;;;;;;2.60;2.30;;;23.30;99.90;;;;;;5024023;28;20472;-76
2021/07/10 11:37:00;;;;;;;2.23;2.10;;;23.40;99.90;;;;;;5026553;28;20468;-79
2021/07/10 11:39:47;;;;;;;2.33;2.13;;;23.50;99.90;;;;;;5013136;28;20475;-78
2021/07/10 11:42:46;;;;;;;2.13;1.93;;;23.50;99.90;;;;;;5028639;28;20967;-78
2021/07/10 11:45:28;;;;;;;2.53;2.00;;;23.60;99.90;;;;;;5028404;28;20867;-76
2021/07/10 11:48:15;;;;;;;4.33;1.83;;;23.60;99.90;;;;;;5026393;28;20464;-77
2021/07/10 11:50:44;;;;;;;2.00;1.60;;;23.60;99.90;;;;;;5018809;28;20533;-79
2021/07/10 11:53:14;;;;;;;2.40;2.27;;;23.60;99.90;;;;;;5026859;28;20453;-83
2021/07/10 11:55:44;;;;;;;2.30;2.20;;;23.60;99.90;;;;;;5014195;28;20481;-82
2021/07/10 11:58:14;;;;;;;1.90;1.70;;;23.60;99.90;;;;;;5026043;28;20527;-83
2021/07/10 12:00:44;;;;;;;1.87;1.77;;;23.60;99.90;;;;;;5029403;28;20866;-83
2021/07/10 12:03:17;;;;;;;1.93;1.83;;;23.60;99.90;;;;;;5023822;28;20453;-82
2021/07/10 12:05:45;;;;;;;2.40;2.20;;;23.70;99.90;;;;;;5035060;28;20565;-81
2021/07/10 12:08:13;;;;;;;3.03;1.83;;;23.70;99.90;;;;;;5039649;28;20451;-82
2021/07/10 12:10:44;;;;;;;2.20;2.00;;;23.70;99.90;;;;;;5036944;28;20476;-82
2021/07/10 12:13:14;;;;;;;2.40;2.30;;;23.80;99.90;;;;;;5040486;28;20444;-82
2021/07/10 12:15:48;;;;;;;2.27;2.17;;;23.80;99.90;;;;;;5024421;28;20475;-82
2021/07/10 12:18:18;;;;;;;3.03;2.47;;;23.80;99.90;;;;;;5035685;28;20522;-82
2021/07/10 12:20:49;;;;;;;1.80;1.70;;;23.80;99.90;;;;;;5028794;28;20445;-79
2021/07/10 12:23:19;;;;;;;2.80;2.03;;;23.90;99.90;;;;;;5028663;28;20468;-81
2021/07/10 12:25:49;;;;;;;2.87;2.63;;;24.00;99.90;;;;;;5025507;28;20529;-81
2021/07/10 12:28:28;;;;;;;3.40;2.10;;;23.90;99.90;;;;;;5031166;28;20468;-81
2021/07/10 12:30:59;;;;;;;2.77;2.57;;;23.90;99.90;;;;;;5024306;28;20861;-80
2021/07/10 12:33:37;;;;;;;3.70;2.33;;;23.90;99.90;;;;;;5037776;28;20463;-80
2021/07/10 12:36:09;;;;;;;2.53;2.40;;;23.90;99.90;;;;;;5021527;28;20522;-83
2021/07/10 12:38:48;;;;;;;1.70;1.60;;;23.90;99.90;;;;;;5033182;28;20452;-80
2021/07/10 12:41:29;;;;;;;2.17;2.07;;;24.00;99.90;;;;;;5044087;28;20460;-83
2021/07/10 12:44:09;;;;;;;2.60;2.40;;;24.00;99.90;;;;;;5029920;28;20561;-82
2021/07/10 12:46:51;;;;;;;2.20;2.10;;;24.00;99.90;;;;;;5035285;28;20506;-81
2021/07/10 12:49:20;;;;;;;2.10;2.00;;;24.00;99.90;;;;;;5028933;28;20440;-82
2021/07/10 12:51:49;;;;;;;4.53;2.70;;;24.00;99.90;;;;;;5037431;28;20456;-83
2021/07/10 12:54:28;;;;;;;2.30;2.10;;;24.10;99.90;;;;;;5035516;28;20476;-83
2021/07/10 12:56:58;;;;;;;2.40;2.20;;;24.20;99.90;;;;;;5037115;28;20533;-85
2021/07/10 12:59:32;;;;;;;1.80;1.70;;;24.10;99.90;;;;;;5029844;28;20652;-84
2021/07/10 13:02:02;;;;;;;2.30;2.13;;;24.20;99.90;;;;;;5029574;28;20448;-84
2021/07/10 13:04:34;;;;;;;2.23;2.00;;;24.20;99.90;;;;;;5029287;28;20469;-85
2021/07/10 13:07:02;;;;;;;2.33;1.93;;;24.30;99.90;;;;;;5030891;28;20457;-84